sensor_id;sensor_type;location;lat;lon;timestamp;P1;durP1;ratioP1;P2;durP2;ratioP2
52730;SDS011;38624;53.242;6.974;2022-11-04T00:01:53;17.38;;;14.40;;
52730;SDS011;38624;53.242;6.974;2022-11-04T00:04:20;17.50;;;13.43;;
52730;SDS011;38624;53.242;6.974;2022-11-04T00:06:47;17.85;;;13.23;;
52730;SDS011;38624;53.242;6.974;2022-11-04T00:09:18;17.48;;;13.55;;
52730;SDS011;38624;53.242;6.974;2022-11-04T00:11:48;18.02;;;13.73;;
52730;SDS011;38624;53.242;6.974;2022-11-04T00:14:33;17.08;;;14.18;;
52730;SDS011;38624;53.242;6.974;2022-11-04T00:17:00;19.02;;;14.23;;
52730;SDS011;38624;53.242;6.974;2022-11-04T00:19:46;17.85;;;13.23;;
52730;SDS011;38624;53.242;6.974;2022-11-04T00:22:35;19.52;;;14.18;;
52730;SDS011;38624;53.242;6.974;2022-11-04T00:25:20;18.10;;;13.65;;
52730;SDS011;38624;53.242;6.974;2022-11-04T00:28:05;18.98;;;14.07;;
52730;SDS011;38624;53.242;6.974;2022-11-04T00:31:02;18.63;;;12.73;;
52730;SDS011;38624;53.242;6.974;2022-11-04T00:33:49;16.08;;;12.80;;
52730;SDS011;38624;53.242;6.974;2022-11-04T00:36:16;17.02;;;13.23;;
52730;SDS011;38624;53.242;6.974;2022-11-04T00:38:42;15.65;;;12.45;;
52730;SDS011;38624;53.242;6.974;2022-11-04T00:41:08;18.52;;;13.18;;
52730;SDS011;38624;53.242;6.974;2022-11-04T00:43:53;17.48;;;14.30;;
52730;SDS011;38624;53.242;6.974;2022-11-04T00:46:20;19.25;;;13.60;;
52730;SDS011;38624;53.242;6.974;2022-11-04T00:48:46;17.40;;;13.00;;
52730;SDS011;38624;53.242;6.974;2022-11-04T00:51:12;18.02;;;13.10;;
52730;SDS011;38624;53.242;6.974;2022-11-04T00:53:38;15.18;;;12.75;;
52730;SDS011;38624;53.242;6.974;2022-11-04T00:56:04;17.55;;;13.40;;
52730;SDS011;38624;53.242;6.974;2022-11-04T00:58:29;17.02;;;12.32;;
52730;SDS011;38624;53.242;6.974;2022-11-04T01:00:55;15.88;;;12.10;;
52730;SDS011;38624;53.242;6.974;2022-11-04T01:03:21;11.95;;;10.05;;
52730;SDS011;38624;53.242;6.974;2022-11-04T01:05:46;13.13;;;10.18;;
52730;SDS011;38624;53.242;6.974;2022-11-04T01:08:12;13.30;;;10.13;;
52730;SDS011;38624;53.242;6.974;2022-11-04T01:10:38;13.00;;;10.00;;
52730;SDS011;38624;53.242;6.974;2022-11-04T01:13:11;13.13;;;9.98;;
52730;SDS011;38624;53.242;6.974;2022-11-04T01:15:37;10.90;;;8.88;;
52730;SDS011;38624;53.242;6.974;2022-11-04T01:18:04;9.70;;;8.35;;
52730;SDS011;38624;53.242;6.974;2022-11-04T01:20:30;8.55;;;7.25;;
52730;SDS011;38624;53.242;6.974;2022-11-04T01:22:56;10.90;;;8.27;;
52730;SDS011;38624;53.242;6.974;2022-11-04T01:25:22;10.10;;;7.55;;
52730;SDS011;38624;53.242;6.974;2022-11-04T01:27:48;6.18;;;5.28;;
52730;SDS011;38624;53.242;6.974;2022-11-04T01:30:13;4.80;;;3.72;;
52730;SDS011;38624;53.242;6.974;2022-11-04T01:32:39;3.85;;;2.92;;
52730;SDS011;38624;53.242;6.974;2022-11-04T01:35:05;4.50;;;3.40;;
52730;SDS011;38624;53.242;6.974;2022-11-04T01:37:31;6.07;;;2.65;;
52730;SDS011;38624;53.242;6.974;2022-11-04T01:39:56;3.45;;;2.33;;
52730;SDS011;38624;53.242;6.974;2022-11-04T01:42:22;4.03;;;2.50;;
52730;SDS011;38624;53.242;6.974;2022-11-04T01:44:52;6.07;;;2.28;;
52730;SDS011;38624;53.242;6.974;2022-11-04T01:47:22;2.85;;;2.00;;
52730;SDS011;38624;53.242;6.974;2022-11-04T01:50:00;3.83;;;1.63;;
52730;SDS011;38624;53.242;6.974;2022-11-04T01:52:40;3.20;;;1.38;;
52730;SDS011;38624;53.242;6.974;2022-11-04T01:55:15;2.40;;;1.40;;
52730;SDS011;38624;53.242;6.974;2022-11-04T01:57:45;2.78;;;1.40;;
52730;SDS011;38624;53.242;6.974;2022-11-04T02:00:14;2.65;;;1.35;;
52730;SDS011;38624;53.242;6.974;2022-11-04T02:02:53;1.67;;;1.15;;
52730;SDS011;38624;53.242;6.974;2022-11-04T02:05:39;2.45;;;1.25;;
52730;SDS011;38624;53.242;6.974;2022-11-04T02:10:32;1.27;;;0.85;;
52730;SDS011;38624;53.242;6.974;2022-11-04T02:12:59;1.85;;;0.80;;
52730;SDS011;38624;53.242;6.974;2022-11-04T02:20:28;3.88;;;1.00;;
52730;SDS011;38624;53.242;6.974;2022-11-04T02:31:33;1.95;;;1.10;;
52730;SDS011;38624;53.242;6.974;2022-11-04T02:34:23;2.50;;;1.00;;
52730;SDS011;38624;53.242;6.974;2022-11-04T02:37:11;2.38;;;0.82;;
52730;SDS011;38624;53.242;6.974;2022-11-04T02:42:23;2.65;;;0.90;;
52730;SDS011;38624;53.242;6.974;2022-11-04T02:45:18;3.38;;;0.90;;
52730;SDS011;38624;53.242;6.974;2022-11-04T02:48:08;1.63;;;0.75;;
52730;SDS011;38624;53.242;6.974;2022-11-04T02:50:40;1.73;;;0.60;;
52730;SDS011;38624;53.242;6.974;2022-11-04T02:53:22;3.83;;;1.00;;
52730;SDS011;38624;53.242;6.974;2022-11-04T02:56:15;6.25;;;0.90;;
52730;SDS011;38624;53.242;6.974;2022-11-04T02:58:47;4.72;;;0.88;;
52730;SDS011;38624;53.242;6.974;2022-11-04T03:01:22;2.58;;;0.70;;
52730;SDS011;38624;53.242;6.974;2022-11-04T03:03:56;1.92;;;0.80;;
52730;SDS011;38624;53.242;6.974;2022-11-04T03:06:30;2.28;;;0.95;;
52730;SDS011;38624;53.242;6.974;2022-11-04T03:08:58;4.78;;;1.05;;
52730;SDS011;38624;53.242;6.974;2022-11-04T03:11:26;8.52;;;1.15;;
52730;SDS011;38624;53.242;6.974;2022-11-04T03:19:09;5.28;;;0.95;;
52730;SDS011;38624;53.242;6.974;2022-11-04T03:21:58;4.53;;;1.08;;
52730;SDS011;38624;53.242;6.974;2022-11-04T03:24:30;2.90;;;0.70;;
52730;SDS011;38624;53.242;6.974;2022-11-04T03:26:58;4.43;;;1.00;;
52730;SDS011;38624;53.242;6.974;2022-11-04T03:29:31;1.90;;;0.57;;
52730;SDS011;38624;53.242;6.974;2022-11-04T03:34:42;3.47;;;0.95;;
52730;SDS011;38624;53.242;6.974;2022-11-04T03:37:08;2.58;;;0.80;;
52730;SDS011;38624;53.242;6.974;2022-11-04T03:39:34;3.30;;;0.70;;
52730;SDS011;38624;53.242;6.974;2022-11-04T03:42:01;2.63;;;0.90;;
52730;SDS011;38624;53.242;6.974;2022-11-04T03:44:47;4.10;;;0.90;;
52730;SDS011;38624;53.242;6.974;2022-11-04T03:47:15;4.18;;;0.85;;
52730;SDS011;38624;53.242;6.974;2022-11-04T03:49:43;4.72;;;0.90;;
52730;SDS011;38624;53.242;6.974;2022-11-04T03:52:10;2.15;;;0.70;;
52730;SDS011;38624;53.242;6.974;2022-11-04T03:54:37;6.05;;;1.00;;
52730;SDS011;38624;53.242;6.974;2022-11-04T04:02:40;3.95;;;1.02;;
52730;SDS011;38624;53.242;6.974;2022-11-04T04:05:13;3.60;;;0.75;;
52730;SDS011;38624;53.242;6.974;2022-11-04T04:08:10;4.35;;;0.80;;
52730;SDS011;38624;53.242;6.974;2022-11-04T04:11:01;2.50;;;0.57;;
52730;SDS011;38624;53.242;6.974;2022-11-04T04:13:51;3.38;;;1.20;;
52730;SDS011;38624;53.242;6.974;2022-11-04T04:16:36;1.73;;;0.70;;
52730;SDS011;38624;53.242;6.974;2022-11-04T04:19:08;2.97;;;0.82;;
52730;SDS011;38624;53.242;6.974;2022-11-04T04:21:50;2.75;;;0.90;;
52730;SDS011;38624;53.242;6.974;2022-11-04T04:24:26;2.50;;;0.90;;
52730;SDS011;38624;53.242;6.974;2022-11-04T04:27:15;0.73;;;0.70;;
52730;SDS011;38624;53.242;6.974;2022-11-04T04:32:36;2.13;;;0.90;;
52730;SDS011;38624;53.242;6.974;2022-11-04T04:35:06;2.88;;;0.80;;
52730;SDS011;38624;53.242;6.974;2022-11-04T04:37:52;2.40;;;0.85;;
52730;SDS011;38624;53.242;6.974;2022-11-04T04:40:40;1.73;;;0.88;;
52730;SDS011;38624;53.242;6.974;2022-11-04T04:43:27;2.70;;;0.82;;
52730;SDS011;38624;53.242;6.974;2022-11-04T04:46:11;1.40;;;0.88;;
52730;SDS011;38624;53.242;6.974;2022-11-04T04:48:37;4.30;;;1.15;;
52730;SDS011;38624;53.242;6.974;2022-11-04T04:51:03;5.70;;;1.00;;
52730;SDS011;38624;53.242;6.974;2022-11-04T04:53:29;7.25;;;1.13;;
52730;SDS011;38624;53.242;6.974;2022-11-04T04:55:55;20.15;;;1.80;;
52730;SDS011;38624;53.242;6.974;2022-11-04T04:58:20;7.25;;;1.17;;
52730;SDS011;38624;53.242;6.974;2022-11-04T05:00:46;10.40;;;1.35;;
52730;SDS011;38624;53.242;6.974;2022-11-04T05:03:12;1.95;;;1.15;;
52730;SDS011;38624;53.242;6.974;2022-11-04T05:05:37;5.38;;;0.80;;
52730;SDS011;38624;53.242;6.974;2022-11-04T05:08:04;8.63;;;0.90;;
52730;SDS011;38624;53.242;6.974;2022-11-04T05:10:30;3.50;;;1.23;;
52730;SDS011;38624;53.242;6.974;2022-11-04T05:12:57;5.88;;;1.20;;
52730;SDS011;38624;53.242;6.974;2022-11-04T05:15:42;5.07;;;1.10;;
52730;SDS011;38624;53.242;6.974;2022-11-04T05:18:09;4.78;;;0.98;;
52730;SDS011;38624;53.242;6.974;2022-11-04T05:20:35;5.18;;;1.10;;
52730;SDS011;38624;53.242;6.974;2022-11-04T05:23:02;3.10;;;1.00;;
52730;SDS011;38624;53.242;6.974;2022-11-04T05:25:28;3.95;;;1.08;;
52730;SDS011;38624;53.242;6.974;2022-11-04T05:27:54;3.92;;;1.30;;
52730;SDS011;38624;53.242;6.974;2022-11-04T05:30:24;5.95;;;0.93;;
52730;SDS011;38624;53.242;6.974;2022-11-04T05:32:49;4.03;;;1.10;;
52730;SDS011;38624;53.242;6.974;2022-11-04T05:35:15;3.75;;;0.90;;
52730;SDS011;38624;53.242;6.974;2022-11-04T05:37:40;2.47;;;1.00;;
52730;SDS011;38624;53.242;6.974;2022-11-04T05:40:06;3.63;;;1.00;;
52730;SDS011;38624;53.242;6.974;2022-11-04T05:42:32;4.23;;;1.13;;
52730;SDS011;38624;53.242;6.974;2022-11-04T05:45:00;3.35;;;1.05;;
52730;SDS011;38624;53.242;6.974;2022-11-04T05:47:26;2.33;;;0.80;;
52730;SDS011;38624;53.242;6.974;2022-11-04T05:49:52;1.95;;;0.82;;
52730;SDS011;38624;53.242;6.974;2022-11-04T05:52:18;2.17;;;0.80;;
52730;SDS011;38624;53.242;6.974;2022-11-04T05:54:43;3.72;;;1.00;;
52730;SDS011;38624;53.242;6.974;2022-11-04T05:57:09;2.97;;;1.02;;
52730;SDS011;38624;53.242;6.974;2022-11-04T05:59:35;6.03;;;0.90;;
52730;SDS011;38624;53.242;6.974;2022-11-04T06:02:01;2.47;;;0.82;;
52730;SDS011;38624;53.242;6.974;2022-11-04T06:04:27;5.18;;;1.02;;
52730;SDS011;38624;53.242;6.974;2022-11-04T06:06:53;3.60;;;0.82;;
52730;SDS011;38624;53.242;6.974;2022-11-04T06:09:18;3.17;;;1.08;;
52730;SDS011;38624;53.242;6.974;2022-11-04T06:11:44;2.85;;;0.70;;
52730;SDS011;38624;53.242;6.974;2022-11-04T06:14:10;2.13;;;0.88;;
52730;SDS011;38624;53.242;6.974;2022-11-04T06:16:36;5.18;;;0.88;;
52730;SDS011;38624;53.242;6.974;2022-11-04T06:19:02;3.35;;;0.90;;
52730;SDS011;38624;53.242;6.974;2022-11-04T06:21:28;3.35;;;1.00;;
52730;SDS011;38624;53.242;6.974;2022-11-04T06:23:56;3.50;;;0.90;;
52730;SDS011;38624;53.242;6.974;2022-11-04T06:26:27;2.25;;;0.60;;
52730;SDS011;38624;53.242;6.974;2022-11-04T06:28:55;0.98;;;0.55;;
52730;SDS011;38624;53.242;6.974;2022-11-04T06:31:21;2.88;;;1.00;;
52730;SDS011;38624;53.242;6.974;2022-11-04T06:33:47;4.22;;;1.00;;
52730;SDS011;38624;53.242;6.974;2022-11-04T06:36:13;3.03;;;0.88;;
52730;SDS011;38624;53.242;6.974;2022-11-04T06:41:06;3.60;;;0.80;;
52730;SDS011;38624;53.242;6.974;2022-11-04T06:43:34;3.80;;;0.90;;
52730;SDS011;38624;53.242;6.974;2022-11-04T06:46:00;4.88;;;1.27;;
52730;SDS011;38624;53.242;6.974;2022-11-04T06:48:27;5.35;;;1.00;;
52730;SDS011;38624;53.242;6.974;2022-11-04T06:50:57;3.20;;;0.88;;
52730;SDS011;38624;53.242;6.974;2022-11-04T06:53:24;2.80;;;0.90;;
52730;SDS011;38624;53.242;6.974;2022-11-04T06:55:50;3.10;;;1.17;;
52730;SDS011;38624;53.242;6.974;2022-11-04T07:00:43;4.60;;;0.80;;
52730;SDS011;38624;53.242;6.974;2022-11-04T07:03:15;5.22;;;0.95;;
52730;SDS011;38624;53.242;6.974;2022-11-04T07:05:40;2.90;;;0.90;;
52730;SDS011;38624;53.242;6.974;2022-11-04T07:08:06;5.15;;;1.33;;
52730;SDS011;38624;53.242;6.974;2022-11-04T07:10:32;3.85;;;1.05;;
52730;SDS011;38624;53.242;6.974;2022-11-04T07:12:58;5.10;;;1.35;;
52730;SDS011;38624;53.242;6.974;2022-11-04T07:15:23;6.75;;;1.67;;
52730;SDS011;38624;53.242;6.974;2022-11-04T07:17:49;3.97;;;1.40;;
52730;SDS011;38624;53.242;6.974;2022-11-04T07:20:15;10.85;;;1.45;;
52730;SDS011;38624;53.242;6.974;2022-11-04T07:22:41;3.97;;;1.17;;
52730;SDS011;38624;53.242;6.974;2022-11-04T07:25:06;5.85;;;1.10;;
52730;SDS011;38624;53.242;6.974;2022-11-04T07:27:33;3.22;;;1.02;;
52730;SDS011;38624;53.242;6.974;2022-11-04T07:29:59;3.80;;;1.13;;
52730;SDS011;38624;53.242;6.974;2022-11-04T07:32:24;3.95;;;1.30;;
52730;SDS011;38624;53.242;6.974;2022-11-04T07:34:50;3.25;;;1.20;;
52730;SDS011;38624;53.242;6.974;2022-11-04T07:37:16;4.60;;;1.27;;
52730;SDS011;38624;53.242;6.974;2022-11-04T07:39:41;3.35;;;1.20;;
52730;SDS011;38624;53.242;6.974;2022-11-04T07:42:07;3.22;;;1.15;;
52730;SDS011;38624;53.242;6.974;2022-11-04T07:44:33;4.85;;;1.13;;
52730;SDS011;38624;53.242;6.974;2022-11-04T07:46:58;3.53;;;1.05;;
52730;SDS011;38624;53.242;6.974;2022-11-04T07:49:24;3.10;;;1.20;;
52730;SDS011;38624;53.242;6.974;2022-11-04T07:51:50;7.15;;;1.30;;
52730;SDS011;38624;53.242;6.974;2022-11-04T07:54:16;6.43;;;1.40;;
52730;SDS011;38624;53.242;6.974;2022-11-04T07:56:41;4.13;;;1.30;;
52730;SDS011;38624;53.242;6.974;2022-11-04T07:59:07;4.82;;;1.33;;
52730;SDS011;38624;53.242;6.974;2022-11-04T08:01:33;3.88;;;1.48;;
52730;SDS011;38624;53.242;6.974;2022-11-04T08:03:59;3.60;;;1.50;;
52730;SDS011;38624;53.242;6.974;2022-11-04T08:06:24;4.25;;;1.08;;
52730;SDS011;38624;53.242;6.974;2022-11-04T08:08:51;3.55;;;1.20;;
52730;SDS011;38624;53.242;6.974;2022-11-04T08:11:19;3.78;;;1.15;;
52730;SDS011;38624;53.242;6.974;2022-11-04T08:13:47;2.80;;;0.90;;
52730;SDS011;38624;53.242;6.974;2022-11-04T08:16:14;3.72;;;1.20;;
52730;SDS011;38624;53.242;6.974;2022-11-04T08:18:44;3.83;;;1.10;;
52730;SDS011;38624;53.242;6.974;2022-11-04T08:21:11;8.02;;;1.13;;
52730;SDS011;38624;53.242;6.974;2022-11-04T08:23:37;2.58;;;0.95;;
52730;SDS011;38624;53.242;6.974;2022-11-04T08:26:10;3.38;;;1.05;;
52730;SDS011;38624;53.242;6.974;2022-11-04T08:28:37;3.17;;;0.85;;
52730;SDS011;38624;53.242;6.974;2022-11-04T08:31:08;4.55;;;1.00;;
52730;SDS011;38624;53.242;6.974;2022-11-04T08:33:37;2.70;;;1.00;;
52730;SDS011;38624;53.242;6.974;2022-11-04T08:36:12;4.80;;;1.20;;
52730;SDS011;38624;53.242;6.974;2022-11-04T08:38:38;1.73;;;0.80;;
52730;SDS011;38624;53.242;6.974;2022-11-04T08:41:05;3.03;;;1.27;;
52730;SDS011;38624;53.242;6.974;2022-11-04T08:43:32;3.72;;;1.30;;
52730;SDS011;38624;53.242;6.974;2022-11-04T08:45:58;3.70;;;1.38;;
52730;SDS011;38624;53.242;6.974;2022-11-04T08:48:25;5.72;;;1.48;;
52730;SDS011;38624;53.242;6.974;2022-11-04T08:50:51;4.63;;;1.67;;
52730;SDS011;38624;53.242;6.974;2022-11-04T08:53:19;4.47;;;1.42;;
52730;SDS011;38624;53.242;6.974;2022-11-04T08:55:46;5.05;;;1.42;;
52730;SDS011;38624;53.242;6.974;2022-11-04T08:58:12;5.15;;;1.30;;
52730;SDS011;38624;53.242;6.974;2022-11-04T09:00:38;3.35;;;1.10;;
52730;SDS011;38624;53.242;6.974;2022-11-04T09:03:04;3.47;;;1.40;;
52730;SDS011;38624;53.242;6.974;2022-11-04T09:05:30;6.45;;;1.40;;
52730;SDS011;38624;53.242;6.974;2022-11-04T09:07:56;3.83;;;1.30;;
52730;SDS011;38624;53.242;6.974;2022-11-04T09:10:22;9.07;;;1.60;;
52730;SDS011;38624;53.242;6.974;2022-11-04T09:12:47;6.88;;;1.40;;
52730;SDS011;38624;53.242;6.974;2022-11-04T09:15:13;6.63;;;1.55;;
52730;SDS011;38624;53.242;6.974;2022-11-04T09:17:39;3.72;;;1.30;;
52730;SDS011;38624;53.242;6.974;2022-11-04T09:20:05;5.97;;;1.15;;
52730;SDS011;38624;53.242;6.974;2022-11-04T09:22:31;6.28;;;1.27;;
52730;SDS011;38624;53.242;6.974;2022-11-04T09:24:57;6.25;;;1.30;;
52730;SDS011;38624;53.242;6.974;2022-11-04T09:27:23;2.65;;;1.13;;
52730;SDS011;38624;53.242;6.974;2022-11-04T09:29:48;2.88;;;1.17;;
52730;SDS011;38624;53.242;6.974;2022-11-04T09:32:14;4.17;;;1.20;;
52730;SDS011;38624;53.242;6.974;2022-11-04T09:34:40;8.52;;;1.40;;
52730;SDS011;38624;53.242;6.974;2022-11-04T09:37:06;5.72;;;1.15;;
52730;SDS011;38624;53.242;6.974;2022-11-04T09:39:32;7.53;;;1.40;;
52730;SDS011;38624;53.242;6.974;2022-11-04T09:44:47;3.00;;;1.10;;
52730;SDS011;38624;53.242;6.974;2022-11-04T09:47:14;2.67;;;1.40;;
52730;SDS011;38624;53.242;6.974;2022-11-04T09:49:41;5.65;;;1.20;;
52730;SDS011;38624;53.242;6.974;2022-11-04T09:52:17;2.05;;;1.20;;
52730;SDS011;38624;53.242;6.974;2022-11-04T09:54:49;3.15;;;1.10;;
52730;SDS011;38624;53.242;6.974;2022-11-04T09:57:36;5.57;;;1.40;;
52730;SDS011;38624;53.242;6.974;2022-11-04T10:00:02;2.42;;;1.30;;
52730;SDS011;38624;53.242;6.974;2022-11-04T10:05:29;6.78;;;1.30;;
52730;SDS011;38624;53.242;6.974;2022-11-04T10:11:20;4.43;;;1.17;;
52730;SDS011;38624;53.242;6.974;2022-11-04T10:27:04;5.65;;;1.30;;
52730;SDS011;38624;53.242;6.974;2022-11-04T10:29:47;3.70;;;1.40;;
52730;SDS011;38624;53.242;6.974;2022-11-04T10:35:16;4.75;;;1.17;;
52730;SDS011;38624;53.242;6.974;2022-11-04T10:37:46;2.85;;;1.02;;
52730;SDS011;38624;53.242;6.974;2022-11-04T10:42:41;5.15;;;1.10;;
52730;SDS011;38624;53.242;6.974;2022-11-04T10:45:09;8.00;;;1.55;;
52730;SDS011;38624;53.242;6.974;2022-11-04T10:47:39;6.28;;;1.27;;
52730;SDS011;38624;53.242;6.974;2022-11-04T10:52:53;2.80;;;0.80;;
52730;SDS011;38624;53.242;6.974;2022-11-04T10:58:15;6.47;;;1.30;;
52730;SDS011;38624;53.242;6.974;2022-11-04T11:00:47;5.43;;;1.15;;
52730;SDS011;38624;53.242;6.974;2022-11-04T11:05:50;4.63;;;1.20;;
52730;SDS011;38624;53.242;6.974;2022-11-04T11:08:27;3.65;;;1.10;;
52730;SDS011;38624;53.242;6.974;2022-11-04T11:10:55;3.13;;;1.00;;
52730;SDS011;38624;53.242;6.974;2022-11-04T11:13:25;8.40;;;1.90;;
52730;SDS011;38624;53.242;6.974;2022-11-04T11:18:32;8.20;;;1.17;;
52730;SDS011;38624;53.242;6.974;2022-11-04T11:21:05;5.80;;;1.10;;
52730;SDS011;38624;53.242;6.974;2022-11-04T11:23:34;11.02;;;1.73;;
52730;SDS011;38624;53.242;6.974;2022-11-04T11:26:16;4.13;;;1.30;;
52730;SDS011;38624;53.242;6.974;2022-11-04T11:28:53;8.48;;;1.20;;
52730;SDS011;38624;53.242;6.974;2022-11-04T11:31:23;7.97;;;1.70;;
52730;SDS011;38624;53.242;6.974;2022-11-04T11:33:54;6.68;;;1.50;;
52730;SDS011;38624;53.242;6.974;2022-11-04T11:36:27;5.10;;;1.30;;
52730;SDS011;38624;53.242;6.974;2022-11-04T11:39:02;2.13;;;0.73;;
52730;SDS011;38624;53.242;6.974;2022-11-04T11:41:34;6.35;;;1.23;;
52730;SDS011;38624;53.242;6.974;2022-11-04T11:52:40;4.65;;;1.13;;
52730;SDS011;38624;53.242;6.974;2022-11-04T11:55:41;9.95;;;1.50;;
52730;SDS011;38624;53.242;6.974;2022-11-04T12:00:54;5.38;;;1.42;;
52730;SDS011;38624;53.242;6.974;2022-11-04T12:03:38;5.18;;;1.63;;
52730;SDS011;38624;53.242;6.974;2022-11-04T12:06:15;6.10;;;1.38;;
52730;SDS011;38624;53.242;6.974;2022-11-04T12:09:07;7.30;;;1.60;;
52730;SDS011;38624;53.242;6.974;2022-11-04T12:14:56;7.00;;;1.10;;
52730;SDS011;38624;53.242;6.974;2022-11-04T12:20:57;7.65;;;1.20;;
52730;SDS011;38624;53.242;6.974;2022-11-04T12:39:28;5.28;;;1.35;;
52730;SDS011;38624;53.242;6.974;2022-11-04T12:42:13;6.63;;;1.40;;
52730;SDS011;38624;53.242;6.974;2022-11-04T12:47:39;5.93;;;1.20;;
52730;SDS011;38624;53.242;6.974;2022-11-04T12:50:13;7.30;;;1.50;;
52730;SDS011;38624;53.242;6.974;2022-11-04T12:53:01;3.97;;;1.05;;
52730;SDS011;38624;53.242;6.974;2022-11-04T13:01:21;4.53;;;1.00;;
52730;SDS011;38624;53.242;6.974;2022-11-04T13:04:15;4.13;;;0.90;;
52730;SDS011;38624;53.242;6.974;2022-11-04T13:07:00;2.42;;;0.90;;
52730;SDS011;38624;53.242;6.974;2022-11-04T13:09:37;4.82;;;1.20;;
52730;SDS011;38624;53.242;6.974;2022-11-04T13:12:10;3.35;;;1.10;;
52730;SDS011;38624;53.242;6.974;2022-11-04T13:17:48;3.33;;;0.90;;
52730;SDS011;38624;53.242;6.974;2022-11-04T13:20:21;2.97;;;0.98;;
52730;SDS011;38624;53.242;6.974;2022-11-04T13:23:03;4.20;;;0.93;;
52730;SDS011;38624;53.242;6.974;2022-11-04T13:25:53;6.38;;;1.10;;
52730;SDS011;38624;53.242;6.974;2022-11-04T13:28:19;2.92;;;0.95;;
52730;SDS011;38624;53.242;6.974;2022-11-04T13:33:32;5.38;;;1.10;;
52730;SDS011;38624;53.242;6.974;2022-11-04T13:38:39;4.55;;;1.20;;
52730;SDS011;38624;53.242;6.974;2022-11-04T13:43:51;5.03;;;1.23;;
52730;SDS011;38624;53.242;6.974;2022-11-04T13:51:19;8.65;;;1.52;;
52730;SDS011;38624;53.242;6.974;2022-11-04T13:56:25;6.82;;;1.50;;
52730;SDS011;38624;53.242;6.974;2022-11-04T13:58:58;8.82;;;1.67;;
52730;SDS011;38624;53.242;6.974;2022-11-04T14:01:28;6.88;;;1.33;;
52730;SDS011;38624;53.242;6.974;2022-11-04T14:04:17;6.97;;;1.52;;
52730;SDS011;38624;53.242;6.974;2022-11-04T14:07:01;5.95;;;1.38;;
52730;SDS011;38624;53.242;6.974;2022-11-04T14:14:39;5.57;;;1.20;;
52730;SDS011;38624;53.242;6.974;2022-11-04T14:25:25;5.55;;;1.40;;
52730;SDS011;38624;53.242;6.974;2022-11-04T14:27:54;8.88;;;1.60;;
52730;SDS011;38624;53.242;6.974;2022-11-04T14:30:45;12.48;;;1.70;;
52730;SDS011;38624;53.242;6.974;2022-11-04T14:38:40;12.35;;;1.77;;
52730;SDS011;38624;53.242;6.974;2022-11-04T14:41:20;9.27;;;1.33;;
52730;SDS011;38624;53.242;6.974;2022-11-04T14:43:46;7.15;;;1.50;;
52730;SDS011;38624;53.242;6.974;2022-11-04T14:46:17;8.18;;;1.50;;
52730;SDS011;38624;53.242;6.974;2022-11-04T14:48:46;5.05;;;1.35;;
52730;SDS011;38624;53.242;6.974;2022-11-04T14:51:23;6.65;;;1.30;;
52730;SDS011;38624;53.242;6.974;2022-11-04T14:53:53;5.72;;;1.35;;
52730;SDS011;38624;53.242;6.974;2022-11-04T14:56:40;11.27;;;1.60;;
52730;SDS011;38624;53.242;6.974;2022-11-04T14:59:06;10.43;;;1.60;;
52730;SDS011;38624;53.242;6.974;2022-11-04T15:01:33;13.60;;;1.52;;
52730;SDS011;38624;53.242;6.974;2022-11-04T15:04:03;7.80;;;1.42;;
52730;SDS011;38624;53.242;6.974;2022-11-04T15:06:38;10.15;;;1.65;;
52730;SDS011;38624;53.242;6.974;2022-11-04T15:09:16;9.43;;;1.60;;
52730;SDS011;38624;53.242;6.974;2022-11-04T15:11:48;7.25;;;1.17;;
52730;SDS011;38624;53.242;6.974;2022-11-04T15:14:33;11.75;;;2.03;;
52730;SDS011;38624;53.242;6.974;2022-11-04T15:17:01;8.30;;;1.65;;
52730;SDS011;38624;53.242;6.974;2022-11-04T15:21:52;10.05;;;1.33;;
52730;SDS011;38624;53.242;6.974;2022-11-04T15:24:18;11.63;;;1.73;;
52730;SDS011;38624;53.242;6.974;2022-11-04T15:26:48;7.97;;;1.60;;
52730;SDS011;38624;53.242;6.974;2022-11-04T15:29:16;8.98;;;1.25;;
52730;SDS011;38624;53.242;6.974;2022-11-04T15:31:56;8.38;;;1.42;;
52730;SDS011;38624;53.242;6.974;2022-11-04T15:34:24;7.07;;;1.45;;
52730;SDS011;38624;53.242;6.974;2022-11-04T15:36:53;9.15;;;1.80;;
52730;SDS011;38624;53.242;6.974;2022-11-04T15:39:28;6.68;;;1.55;;
52730;SDS011;38624;53.242;6.974;2022-11-04T15:42:04;6.07;;;1.30;;
52730;SDS011;38624;53.242;6.974;2022-11-04T15:44:51;10.73;;;1.80;;
52730;SDS011;38624;53.242;6.974;2022-11-04T15:47:25;8.35;;;1.92;;
52730;SDS011;38624;53.242;6.974;2022-11-04T15:49:53;7.75;;;1.60;;
52730;SDS011;38624;53.242;6.974;2022-11-04T15:52:28;10.85;;;2.05;;
52730;SDS011;38624;53.242;6.974;2022-11-04T15:54:55;9.48;;;1.75;;
52730;SDS011;38624;53.242;6.974;2022-11-04T15:57:23;9.65;;;1.52;;
52730;SDS011;38624;53.242;6.974;2022-11-04T16:07:40;10.48;;;1.80;;
52730;SDS011;38624;53.242;6.974;2022-11-04T16:12:55;14.25;;;1.85;;
52730;SDS011;38624;53.242;6.974;2022-11-04T16:18:17;10.35;;;1.83;;
52730;SDS011;38624;53.242;6.974;2022-11-04T16:21:19;10.18;;;2.20;;
52730;SDS011;38624;53.242;6.974;2022-11-04T16:24:16;6.13;;;1.65;;
52730;SDS011;38624;53.242;6.974;2022-11-04T16:26:47;8.48;;;1.65;;
52730;SDS011;38624;53.242;6.974;2022-11-04T16:29:32;8.00;;;1.40;;
52730;SDS011;38624;53.242;6.974;2022-11-04T16:32:07;9.48;;;1.83;;
52730;SDS011;38624;53.242;6.974;2022-11-04T16:34:37;6.53;;;1.48;;
52730;SDS011;38624;53.242;6.974;2022-11-04T16:37:03;8.23;;;1.60;;
52730;SDS011;38624;53.242;6.974;2022-11-04T16:39:29;6.75;;;1.77;;
52730;SDS011;38624;53.242;6.974;2022-11-04T16:44:22;7.38;;;1.85;;
52730;SDS011;38624;53.242;6.974;2022-11-04T16:49:16;11.68;;;1.92;;
52730;SDS011;38624;53.242;6.974;2022-11-04T16:51:44;9.02;;;1.60;;
52730;SDS011;38624;53.242;6.974;2022-11-04T16:54:11;10.65;;;2.25;;
52730;SDS011;38624;53.242;6.974;2022-11-04T16:56:37;11.05;;;2.65;;
52730;SDS011;38624;53.242;6.974;2022-11-04T16:59:04;12.40;;;2.83;;
52730;SDS011;38624;53.242;6.974;2022-11-04T17:01:30;12.55;;;2.70;;
52730;SDS011;38624;53.242;6.974;2022-11-04T17:03:56;10.60;;;2.28;;
52730;SDS011;38624;53.242;6.974;2022-11-04T17:06:21;10.73;;;2.55;;
52730;SDS011;38624;53.242;6.974;2022-11-04T17:08:47;9.38;;;2.60;;
52730;SDS011;38624;53.242;6.974;2022-11-04T17:11:13;10.82;;;2.20;;
52730;SDS011;38624;53.242;6.974;2022-11-04T17:13:39;13.40;;;2.15;;
52730;SDS011;38624;53.242;6.974;2022-11-04T17:16:05;9.43;;;2.22;;
52730;SDS011;38624;53.242;6.974;2022-11-04T17:18:32;13.93;;;2.30;;
52730;SDS011;38624;53.242;6.974;2022-11-04T17:20:58;13.20;;;2.47;;
52730;SDS011;38624;53.242;6.974;2022-11-04T17:23:28;10.27;;;2.78;;
52730;SDS011;38624;53.242;6.974;2022-11-04T17:25:54;12.07;;;2.20;;
52730;SDS011;38624;53.242;6.974;2022-11-04T17:28:20;11.95;;;2.38;;
52730;SDS011;38624;53.242;6.974;2022-11-04T17:30:45;11.00;;;2.25;;
52730;SDS011;38624;53.242;6.974;2022-11-04T17:33:15;12.07;;;2.15;;
52730;SDS011;38624;53.242;6.974;2022-11-04T17:35:43;10.52;;;2.08;;
52730;SDS011;38624;53.242;6.974;2022-11-04T17:38:10;12.98;;;2.40;;
52730;SDS011;38624;53.242;6.974;2022-11-04T17:40:36;10.88;;;1.90;;
52730;SDS011;38624;53.242;6.974;2022-11-04T17:43:23;9.10;;;1.70;;
52730;SDS011;38624;53.242;6.974;2022-11-04T17:46:08;10.25;;;2.17;;
52730;SDS011;38624;53.242;6.974;2022-11-04T17:48:52;12.15;;;2.00;;
52730;SDS011;38624;53.242;6.974;2022-11-04T17:51:18;11.60;;;2.30;;
52730;SDS011;38624;53.242;6.974;2022-11-04T17:56:18;8.35;;;2.05;;
52730;SDS011;38624;53.242;6.974;2022-11-04T17:58:46;9.27;;;2.17;;
52730;SDS011;38624;53.242;6.974;2022-11-04T18:01:13;10.88;;;2.15;;
52730;SDS011;38624;53.242;6.974;2022-11-04T18:03:40;10.45;;;2.50;;
52730;SDS011;38624;53.242;6.974;2022-11-04T18:06:07;12.27;;;1.90;;
52730;SDS011;38624;53.242;6.974;2022-11-04T18:08:34;11.57;;;2.10;;